高松空港の過去48時間の天気

高松空港 (Takamatsu)

現在時刻: 10/20 03:42 JST (10/19 18:42 UTC) 以下の時間は現地時間です。

過去48時間のMETAR気象情報
時間 風向 風速(m/s) 視程 気温(℃) 湿度(%) 気圧(hPa) 天気現象
19 21:00 北西 2 10km以上 17 72 1019
19 20:00 不定 1 10km以上 17 68 1019
19 19:00 不定 2 10km以上 17 72 1018
19 18:00 南南西 3 10km以上 17 72 1017
19 17:00 西 3 10km以上 18 64 1017
19 16:00 西北西 5 10km以上 20 56 1016
19 15:00 北西 5 10km以上 21 46 1016
19 14:00 西 5 10km以上 21 46 1016
19 13:00 5 10km以上 21 43 1016
19 12:00 西 5 10km以上 21 43 1017
19 11:00 西 5 10km以上 20 53 1017
19 10:00 西 5 10km以上 20 56 1018
19 09:00 西南西 3 10km以上 18 73 1018
19 08:00 西 3 10km以上 16 82 1018 周辺でしゅう雨
19 07:00 南西 3 10km以上 13 94 1017 周辺でしゅう雨
19 06:20 不定 1 10km以上 13 88 1017 周辺でしゅう雨
18 21:00 南南東 2 10km以上 15 88 1016
18 20:00 3 10km以上 16 82 1016 周辺でしゅう雨
18 19:00 南南西 2 10km以上 16 82 1015
18 18:00 南東 2 10km以上 16 82 1015
18 17:00 南東 2 10km以上 19 73 1014
18 16:00 東南東 2 10km以上 20 60 1014
18 15:00 不定 2 10km以上 21 56 1014
18 14:00 東北東 3 10km以上 20 64 1014
18 13:00 不定 1 10km以上 21 53 1014
18 12:00 不定 2 10km以上 20 60 1015
18 11:00 不定 2 10km以上 19 68 1015
18 10:00 北北西 2 10km以上 19 73 1015
18 09:00 2 10km以上 17 77 1015
18 08:00 東南東 2 10km以上 16 82 1015
18 07:00 南南東 3 10km以上 13 94 1015
18 06:20 南東 3 10km以上 13 94 1014
RJOT 191200Z 32004KT 280V360 9999 FEW030 SCT050 BKN080 17/12 Q1019
RJOT 191100Z VRB02KT 9999 FEW030 BKN050 BKN090 17/11 Q1019
RJOT 191000Z VRB03KT 9999 FEW030 SCT050 BKN080 17/12 Q1018
RJOT 190900Z 20005KT 9999 FEW030 SCT050 BKN080 17/12 Q1017
RJOT 190800Z 28006KT 9999 FEW035 SCT050 BKN090 18/11 Q1017
RJOT 190700Z 30009KT 9999 FEW035 20/11 Q1016
RJOT 190600Z 31009KT 9999 FEW030 21/09 Q1016
RJOT 190500Z 28010KT 250V320 9999 FEW025 21/09 Q1016
RJOT 190400Z VRB09KT 9999 FEW025 21/08 Q1016
RJOT 190300Z 28009KT 250V340 9999 FEW025 21/08 Q1017
RJOT 190200Z 27010KT 240V320 9999 FEW020 20/10 Q1017
RJOT 190100Z 27009KT 9999 FEW020 20/11 Q1018
RJOT 190000Z 24005KT 180V290 9999 FEW020 18/13 Q1018
RJOT 182300Z 26006KT 9999 VCSH FEW020 SCT030 16/13 Q1018
RJOT 182200Z 22005KT 9999 VCSH FEW005 BKN030 13/12 Q1017
RJOT 182120Z VRB02KT 9999 VCSH FEW020 SCT030 BKN100 13/11 Q1017 RMK 1CU020 3CU030 5AC100 A3005
RJOT 181200Z 15004KT 120V180 CAVOK 15/13 Q1016
RJOT 181100Z 19005KT 9999 VCSH FEW040 SCT070 BKN090 16/13 Q1016
RJOT 181000Z 20003KT 150V260 9999 FEW040 SCT100 BKN110 16/13 Q1015
RJOT 180900Z 14004KT 9999 FEW030 16/13 Q1015
RJOT 180800Z 13004KT 9999 FEW030 19/14 Q1014
RJOT 180700Z 12003KT 090V150 9999 FEW030 20/12 Q1014
RJOT 180600Z VRB03KT 9999 FEW030 21/12 Q1014
RJOT 180500Z 06005KT 030V090 9999 FEW025 SCT035 20/13 Q1014
RJOT 180400Z VRB02KT 9999 FEW025 SCT035 21/11 Q1014
RJOT 180300Z VRB03KT 9999 FEW025 SCT/// 20/12 Q1015
RJOT 180200Z VRB03KT 9999 FEW020 SCT030 BKN/// 19/13 Q1015
RJOT 180100Z 34004KT 290V040 9999 FEW020 SCT/// 19/14 Q1015
RJOT 180000Z 36004KT 9999 FEW020 SCT/// 17/13 Q1015
RJOT 172300Z 12003KT 070V180 9999 FEW020 16/13 Q1015
RJOT 172200Z 15005KT 9999 FEW020 13/12 Q1015
RJOT 172120Z 14005KT 110V170 9999 FEW020 13/12 Q1014 RMK 1CU020 A2997